createdAt,value
2022-11-01T00:01:21.817Z,63.25
2022-11-01T00:04:39.923Z,63.14
2022-11-01T00:07:20.057Z,63.33
2022-11-01T00:09:50.319Z,63.24
2022-11-01T00:12:18.467Z,63.34
2022-11-01T00:14:51.263Z,63.14
2022-11-01T00:17:20.424Z,63.03
2022-11-01T00:19:49.000Z,62.71
2022-11-01T00:22:18.743Z,62.56
2022-11-01T00:24:47.513Z,62.62
2022-11-01T00:27:16.237Z,62.78
2022-11-01T00:29:44.936Z,62.33
2022-11-01T00:32:16.879Z,62.19
2022-11-01T00:34:44.993Z,61.32
2022-11-01T00:37:13.148Z,61.23
2022-11-01T00:39:42.826Z,60.76
2022-11-01T00:42:10.945Z,59.93
2022-11-01T00:44:39.282Z,58.92
2022-11-01T00:47:07.747Z,58.04
2022-11-01T00:49:37.713Z,56.97
2022-11-01T00:52:11.704Z,55.40
2022-11-01T00:54:39.694Z,55.80
2022-11-01T00:57:09.454Z,54.63
2022-11-01T00:59:40.881Z,55.04
2022-11-01T01:02:09.424Z,54.13
2022-11-01T01:04:42.390Z,54.23
2022-11-01T01:07:11.780Z,53.45
2022-11-01T01:09:40.306Z,53.72
2022-11-01T01:12:10.839Z,53.35
2022-11-01T01:14:38.988Z,52.93
2022-11-01T01:17:07.124Z,53.04
2022-11-01T01:19:35.442Z,52.37
2022-11-01T01:22:03.585Z,51.80
2022-11-01T01:24:35.653Z,51.68
2022-11-01T01:27:04.754Z,51.55
2022-11-01T01:29:35.272Z,51.78
2022-11-01T01:32:03.441Z,52.51
2022-11-01T01:34:34.074Z,52.50
2022-11-01T01:37:02.252Z,52.30
2022-11-01T01:39:31.205Z,52.34
2022-11-01T01:41:59.728Z,51.69
2022-11-01T01:45:16.897Z,51.95
2022-11-01T01:47:49.565Z,52.59
2022-11-01T01:50:25.217Z,52.56
2022-11-01T01:52:59.992Z,53.18
2022-11-01T01:55:33.612Z,52.63
2022-11-01T01:58:01.921Z,52.56
2022-11-01T02:00:30.277Z,52.98
2022-11-01T02:03:01.142Z,52.66
2022-11-01T02:05:36.479Z,52.58
2022-11-01T02:08:08.568Z,52.93
2022-11-01T02:10:41.868Z,52.97
2022-11-01T02:13:14.781Z,53.23
2022-11-01T02:16:00.477Z,53.13
2022-11-01T02:18:42.919Z,53.41
2022-11-01T02:21:44.449Z,53.19
2022-11-01T02:24:33.947Z,53.50
2022-11-01T02:27:14.996Z,53.55
2022-11-01T02:30:16.016Z,53.86
2022-11-01T02:33:11.783Z,54.43
2022-11-01T02:35:57.471Z,54.18
2022-11-01T02:38:34.913Z,54.46
2022-11-01T02:41:10.870Z,54.77
2022-11-01T02:43:49.111Z,54.64
2022-11-01T02:46:36.500Z,54.92
2022-11-01T02:49:07.298Z,54.82
2022-11-01T02:51:37.788Z,54.83
2022-11-01T02:54:12.068Z,55.29
2022-11-01T02:56:41.215Z,55.13
2022-11-01T02:59:24.377Z,55.46
2022-11-01T03:02:05.578Z,55.61
2022-11-01T03:04:37.847Z,55.43
2022-11-01T03:07:11.421Z,55.58
2022-11-01T03:09:45.530Z,55.77
2022-11-01T03:12:20.274Z,55.94
2022-11-01T03:14:58.993Z,55.78
2022-11-01T03:17:39.395Z,55.89
2022-11-01T03:20:18.550Z,55.94
2022-11-01T03:22:51.361Z,56.18
2022-11-01T03:25:41.900Z,55.85
2022-11-01T03:28:16.368Z,55.91
2022-11-01T03:30:49.270Z,56.26
2022-11-01T03:33:20.001Z,55.98
2022-11-01T03:35:53.492Z,55.87
2022-11-01T03:38:31.682Z,55.88
2022-11-01T03:41:08.546Z,55.73
2022-11-01T03:43:38.197Z,55.76
2022-11-01T03:46:07.120Z,55.85
2022-11-01T03:48:37.239Z,55.88
2022-11-01T03:51:08.856Z,55.96
2022-11-01T03:53:37.401Z,56.37
2022-11-01T03:56:09.978Z,56.53
2022-11-01T03:58:50.728Z,56.44
2022-11-01T04:01:21.729Z,56.55
2022-11-01T04:03:50.191Z,56.89
2022-11-01T04:06:27.274Z,56.77
2022-11-01T04:08:59.931Z,56.84
2022-11-01T04:11:28.159Z,56.83
2022-11-01T04:14:16.761Z,57.13
2022-11-01T04:17:02.472Z,57.38
2022-11-01T04:19:50.700Z,57.46
2022-11-01T04:22:24.568Z,58.01
2022-11-01T04:24:52.942Z,58.16
2022-11-01T04:27:20.913Z,57.92
2022-11-01T04:29:54.669Z,57.92
2022-11-01T04:32:25.891Z,57.42
2022-11-01T04:34:57.319Z,57.42
2022-11-01T04:37:40.685Z,57.09
2022-11-01T04:40:10.608Z,57.15
2022-11-01T04:42:39.198Z,56.70
2022-11-01T04:45:10.538Z,57.11
2022-11-01T04:47:38.659Z,56.76
2022-11-01T04:50:07.580Z,56.57
2022-11-01T04:52:38.273Z,56.73
2022-11-01T04:55:07.270Z,56.51
2022-11-01T04:57:39.971Z,56.18
2022-11-01T05:00:11.548Z,56.38
2022-11-01T05:02:40.923Z,56.43
2022-11-01T05:05:11.133Z,56.42
2022-11-01T05:07:41.575Z,56.79
2022-11-01T05:10:11.690Z,56.28
2022-11-01T05:12:39.968Z,56.75
2022-11-01T05:15:11.023Z,56.82
2022-11-01T05:17:45.575Z,57.09
2022-11-01T05:20:17.164Z,57.16
2022-11-01T05:22:47.071Z,56.86
2022-11-01T05:25:15.534Z,57.00
2022-11-01T05:27:43.543Z,56.85
2022-11-01T05:30:12.946Z,56.82
2022-11-01T05:32:41.102Z,56.87
2022-11-01T05:35:09.881Z,56.97
2022-11-01T05:37:38.042Z,57.07
2022-11-01T05:40:09.533Z,56.95
2022-11-01T05:42:40.181Z,57.00
2022-11-01T05:45:10.153Z,57.10
2022-11-01T05:47:40.666Z,57.18
2022-11-01T05:50:10.066Z,57.31
2022-11-01T05:52:38.777Z,57.17
2022-11-01T05:55:09.834Z,57.01
2022-11-01T05:57:37.989Z,57.13
2022-11-01T06:00:07.744Z,57.12
2022-11-01T06:02:36.115Z,57.03
2022-11-01T06:05:04.474Z,57.13
2022-11-01T06:07:32.546Z,56.90
2022-11-01T06:10:00.682Z,57.14
2022-11-01T06:12:32.255Z,57.12
2022-11-01T06:15:00.507Z,57.25
2022-11-01T06:17:28.525Z,57.30
2022-11-01T06:19:57.071Z,57.24
2022-11-01T06:22:25.052Z,56.99
2022-11-01T06:24:53.094Z,56.71
2022-11-01T06:27:21.216Z,56.82
2022-11-01T06:29:51.327Z,56.61
2022-11-01T06:32:19.497Z,56.71
2022-11-01T06:34:47.949Z,56.66
2022-11-01T06:37:19.133Z,56.81
2022-11-01T06:39:47.278Z,56.81
2022-11-01T06:42:15.377Z,56.78
2022-11-01T06:44:43.832Z,56.52
2022-11-01T06:47:14.627Z,56.94
2022-11-01T06:49:42.741Z,56.66
2022-11-01T06:52:10.744Z,56.82
2022-11-01T06:54:38.836Z,56.73
2022-11-01T06:57:07.695Z,56.80
2022-11-01T06:59:36.022Z,57.08
2022-11-01T07:02:12.435Z,56.87
2022-11-01T07:04:43.847Z,56.86
2022-11-01T07:07:12.052Z,56.92
2022-11-01T07:09:40.328Z,56.83
2022-11-01T07:35:25.504Z,57.53
2022-11-01T07:38:31.609Z,57.63
2022-11-01T08:13:38.825Z,57.26
2022-11-01T08:16:58.216Z,57.42
2022-11-01T08:25:30.435Z,57.36
2022-11-01T08:28:16.220Z,57.58
2022-11-01T08:38:24.754Z,57.52
2022-11-01T08:44:58.601Z,57.94
2022-11-01T08:54:27.227Z,58.37
2022-11-01T09:00:13.443Z,58.80
2022-11-01T09:02:49.469Z,58.56
2022-11-01T09:17:57.828Z,58.70
2022-11-01T09:20:46.041Z,58.70
2022-11-01T09:36:01.906Z,58.79
2022-11-01T09:56:04.928Z,58.05
2022-11-01T09:59:02.646Z,57.77
2022-11-01T10:05:23.382Z,58.13
2022-11-01T10:08:03.383Z,57.77
2022-11-01T10:22:57.920Z,57.97
2022-11-01T10:25:39.350Z,57.96
2022-11-01T11:45:26.217Z,55.56
2022-11-01T12:25:36.920Z,52.05
2022-11-01T12:28:20.462Z,51.07
2022-11-01T12:34:42.748Z,49.45
2022-11-01T12:37:42.324Z,48.04
2022-11-01T12:40:37.115Z,47.16
2022-11-01T12:46:42.167Z,46.50
2022-11-01T12:49:33.177Z,46.48
2022-11-01T13:27:12.901Z,57.62
2022-11-01T14:06:45.482Z,60.26
2022-11-01T15:00:42.267Z,56.02
2022-11-01T15:03:23.257Z,55.84
2022-11-01T15:06:27.345Z,55.21
2022-11-01T15:19:08.594Z,54.78
2022-11-01T15:21:50.604Z,55.04
2022-11-01T15:25:06.902Z,54.72
2022-11-01T15:28:21.153Z,55.07
2022-11-01T15:31:22.994Z,55.64
2022-11-01T15:34:02.391Z,55.83
2022-11-01T15:36:40.680Z,55.78
2022-11-01T15:39:19.749Z,55.96
2022-11-01T15:41:49.278Z,56.33
2022-11-01T15:54:11.860Z,55.11
2022-11-01T15:56:53.714Z,56.04
2022-11-01T15:59:55.312Z,57.65
2022-11-01T16:02:47.733Z,59.25
2022-11-01T16:05:20.951Z,60.59
2022-11-01T16:07:53.174Z,60.51
2022-11-01T16:10:35.468Z,60.90
2022-11-01T16:13:06.242Z,60.96
2022-11-01T16:15:47.602Z,61.17
2022-11-01T16:47:25.410Z,60.54
2022-11-01T16:50:00.950Z,60.23
2022-11-01T16:52:32.248Z,60.06
2022-11-01T16:55:08.961Z,59.92
2022-11-01T16:57:48.053Z,59.57
2022-11-01T17:00:19.704Z,58.88
2022-11-01T17:02:51.192Z,58.07
2022-11-01T17:05:25.286Z,58.04
2022-11-01T17:07:55.550Z,58.25
2022-11-01T17:10:28.769Z,57.92
2022-11-01T17:13:08.649Z,58.40
2022-11-01T17:15:48.395Z,58.53
2022-11-01T17:18:25.586Z,58.44
2022-11-01T17:21:27.660Z,58.78
2022-11-01T17:29:20.187Z,58.58
2022-11-01T17:31:48.981Z,56.23
2022-11-01T17:34:19.132Z,56.43
2022-11-01T17:37:04.549Z,56.80
2022-11-01T17:39:36.133Z,57.25
2022-11-01T17:42:04.243Z,57.96
2022-11-01T17:47:21.212Z,58.59
2022-11-01T17:49:52.074Z,58.66
2022-11-01T17:55:46.239Z,59.43
2022-11-01T17:59:00.796Z,59.21
2022-11-01T18:05:29.061Z,59.16
2022-11-01T18:29:48.891Z,57.83
2022-11-01T18:32:54.830Z,57.63
2022-11-01T19:09:10.935Z,58.12
2022-11-01T19:11:45.627Z,58.71
2022-11-01T19:14:38.823Z,59.37
2022-11-01T19:17:38.304Z,59.06
2022-11-01T19:20:35.485Z,58.32
2022-11-01T19:29:03.604Z,58.44
2022-11-01T19:31:39.283Z,58.21
2022-11-01T19:37:20.016Z,58.40
2022-11-01T19:40:10.161Z,59.56
2022-11-01T19:42:44.651Z,60.22
2022-11-01T19:45:36.949Z,60.59
2022-11-01T19:48:12.994Z,60.99
2022-11-01T19:53:30.550Z,60.10
2022-11-01T20:07:27.038Z,59.03
2022-11-01T20:10:56.247Z,58.92
2022-11-01T20:14:05.795Z,58.53
2022-11-01T20:42:57.797Z,54.23
2022-11-01T20:51:33.736Z,51.13
2022-11-01T20:57:27.457Z,50.57
2022-11-01T21:17:09.989Z,54.10
2022-11-01T21:19:54.709Z,54.61
2022-11-01T21:22:32.839Z,54.46
2022-11-01T22:13:46.484Z,48.59
2022-11-01T22:19:19.628Z,52.41
2022-11-01T22:22:06.701Z,54.44
2022-11-01T22:24:36.731Z,56.30
2022-11-01T22:29:48.328Z,57.19
2022-11-01T22:32:18.812Z,57.92
2022-11-01T22:37:56.183Z,59.01
2022-11-01T22:40:45.875Z,58.77
2022-11-01T22:43:36.823Z,57.42
2022-11-01T22:46:31.542Z,56.83
2022-11-01T22:49:17.058Z,56.00
2022-11-01T22:51:47.274Z,55.37
2022-11-01T22:57:24.950Z,53.46
2022-11-01T23:51:38.589Z,46.72
2022-11-01T23:54:56.180Z,47.06
